createdAt,value
2019-03-17T00:02:00.895Z,10.29
2019-03-17T00:04:32.057Z,10.27
2019-03-17T00:07:02.363Z,10.26
2019-03-17T00:09:33.129Z,10.24
2019-03-17T00:12:03.639Z,10.25
2019-03-17T00:14:34.109Z,10.32
2019-03-17T00:17:04.443Z,10.26
2019-03-17T00:19:34.656Z,10.31
2019-03-17T00:22:04.802Z,10.26
2019-03-17T00:24:34.993Z,10.30
2019-03-17T00:27:05.260Z,10.32
2019-03-17T00:29:36.419Z,10.32
2019-03-17T00:32:06.591Z,10.29
2019-03-17T00:34:44.097Z,10.32
2019-03-17T00:37:13.982Z,10.31
2019-03-17T00:39:44.326Z,10.29
2019-03-17T00:42:14.496Z,10.27
2019-03-17T00:44:44.835Z,10.32
2019-03-17T00:47:16.578Z,10.34
2019-03-17T00:49:46.930Z,10.32
2019-03-17T00:52:17.326Z,10.34
2019-03-17T00:54:48.043Z,10.31
2019-03-17T00:57:18.545Z,10.33
2019-03-17T00:59:48.921Z,10.35
2019-03-17T01:02:21.364Z,10.36
2019-03-17T01:04:56.130Z,10.34
2019-03-17T01:07:26.309Z,10.39
2019-03-17T01:09:56.843Z,10.39
2019-03-17T01:12:28.955Z,10.35
2019-03-17T01:14:59.634Z,10.33
2019-03-17T01:17:30.449Z,10.34
2019-03-17T01:20:01.508Z,10.36
2019-03-17T01:22:31.715Z,10.34
2019-03-17T01:25:02.385Z,10.33
2019-03-17T01:27:33.147Z,10.33
2019-03-17T01:30:03.766Z,10.33
2019-03-17T01:32:36.892Z,10.23
2019-03-17T01:35:09.618Z,10.31
2019-03-17T01:37:39.278Z,10.29
2019-03-17T01:40:09.735Z,10.23
2019-03-17T01:42:40.096Z,10.26
2019-03-17T01:45:10.858Z,10.23
2019-03-17T01:47:41.407Z,10.20
2019-03-17T01:50:14.461Z,10.21
2019-03-17T01:52:44.605Z,10.22
2019-03-17T01:55:18.237Z,10.19
2019-03-17T01:57:48.397Z,10.16
2019-03-17T02:00:18.586Z,10.18
2019-03-17T02:02:48.843Z,10.19
2019-03-17T02:05:22.318Z,10.20
2019-03-17T02:07:53.322Z,10.17
2019-03-17T02:10:23.567Z,10.15
2019-03-17T02:12:53.697Z,10.20
2019-03-17T02:15:23.891Z,10.17
2019-03-17T02:17:54.133Z,10.13
2019-03-17T02:20:24.569Z,10.10
2019-03-17T02:22:57.041Z,10.08
2019-03-17T02:25:27.230Z,10.10
2019-03-17T02:28:01.171Z,10.10
2019-03-17T02:30:31.462Z,10.03
2019-03-17T02:33:04.589Z,9.98
2019-03-17T02:35:39.469Z,9.88
2019-03-17T02:38:07.161Z,9.81
2019-03-17T02:40:38.307Z,9.78
2019-03-17T02:43:09.291Z,9.66
2019-03-17T02:45:41.112Z,9.66
2019-03-17T02:48:11.341Z,9.60
2019-03-17T02:50:41.564Z,9.58
2019-03-17T02:53:11.713Z,9.58
2019-03-17T02:55:42.003Z,9.59
2019-03-17T02:58:12.244Z,9.61
2019-03-17T03:00:42.423Z,9.57
2019-03-17T03:03:12.591Z,9.49
2019-03-17T03:05:54.740Z,9.47
2019-03-17T03:08:22.388Z,9.41
2019-03-17T03:10:52.666Z,9.44
2019-03-17T03:13:24.672Z,9.39
2019-03-17T03:15:55.343Z,9.34
2019-03-17T03:18:25.424Z,9.34
2019-03-17T03:20:55.798Z,9.34
2019-03-17T03:23:25.948Z,9.37
2019-03-17T03:25:56.123Z,9.36
2019-03-17T03:28:26.742Z,9.33
2019-03-17T03:30:57.085Z,9.42
2019-03-17T03:33:27.269Z,9.50
2019-03-17T03:36:10.159Z,9.52
2019-03-17T03:38:29.168Z,9.61
2019-03-17T03:40:59.418Z,9.68
2019-03-17T03:43:29.698Z,9.69
2019-03-17T03:46:00.658Z,9.71
2019-03-17T03:48:32.419Z,9.69
2019-03-17T03:51:02.574Z,9.74
2019-03-17T03:53:32.760Z,9.83
2019-03-17T03:56:03.000Z,9.89
2019-03-17T03:58:33.173Z,9.92
2019-03-17T04:01:03.438Z,9.91
2019-03-17T04:03:34.674Z,9.94
2019-03-17T04:06:04.966Z,9.94
2019-03-17T04:08:35.078Z,9.94
2019-03-17T04:11:05.187Z,9.98
2019-03-17T04:13:35.334Z,9.98
2019-03-17T04:16:05.541Z,10.01
2019-03-17T04:18:35.661Z,10.06
2019-03-17T04:21:08.010Z,10.03
2019-03-17T04:23:38.509Z,9.98
2019-03-17T04:26:08.631Z,9.95
2019-03-17T04:28:38.784Z,9.95
2019-03-17T04:31:08.994Z,9.93
2019-03-17T04:33:39.172Z,9.93
2019-03-17T04:36:09.275Z,9.93
2019-03-17T04:38:39.483Z,9.96
2019-03-17T04:41:10.977Z,9.96
2019-03-17T04:43:41.161Z,9.96
2019-03-17T04:46:11.271Z,9.92
2019-03-17T04:48:44.544Z,9.85
2019-03-17T04:51:14.673Z,9.76
2019-03-17T04:53:44.837Z,9.71
2019-03-17T04:56:15.086Z,9.72
2019-03-17T04:58:46.411Z,9.71
2019-03-17T05:01:16.553Z,9.77
2019-03-17T05:03:46.814Z,9.79
2019-03-17T05:06:18.138Z,9.82
2019-03-17T05:08:48.300Z,9.91
2019-03-17T05:11:18.399Z,9.96
2019-03-17T05:13:48.540Z,9.98
2019-03-17T05:16:18.655Z,10.00
2019-03-17T05:18:48.833Z,9.93
2019-03-17T05:21:19.667Z,9.99
2019-03-17T05:23:51.136Z,10.00
2019-03-17T05:26:21.341Z,9.98
2019-03-17T05:28:52.002Z,10.02
2019-03-17T05:31:22.200Z,10.00
2019-03-17T05:33:52.368Z,10.01
2019-03-17T05:36:22.664Z,10.08
2019-03-17T05:38:52.909Z,10.10
2019-03-17T05:41:24.942Z,10.08
2019-03-17T05:43:55.224Z,10.08
2019-03-17T05:46:25.485Z,10.07
2019-03-17T05:48:55.708Z,10.05
2019-03-17T05:51:28.389Z,10.11
2019-03-17T05:53:58.814Z,10.15
2019-03-17T05:56:33.348Z,10.16
2019-03-17T05:59:05.271Z,10.15
2019-03-17T06:01:35.492Z,10.19
2019-03-17T06:04:07.317Z,10.20
2019-03-17T06:06:40.251Z,10.21
2019-03-17T06:09:10.641Z,10.20
2019-03-17T06:11:41.453Z,10.22
2019-03-17T06:14:11.749Z,10.21
2019-03-17T06:16:43.099Z,10.13
2019-03-17T06:19:14.834Z,10.12
2019-03-17T06:21:45.526Z,10.15
2019-03-17T06:24:15.955Z,10.16
2019-03-17T06:26:46.955Z,10.14
2019-03-17T06:29:18.841Z,10.08
2019-03-17T06:31:52.986Z,10.11
2019-03-17T06:34:24.480Z,10.09
2019-03-17T06:36:54.830Z,10.18
2019-03-17T06:39:25.161Z,10.25
2019-03-17T06:41:55.329Z,10.18
2019-03-17T06:44:25.628Z,10.16
2019-03-17T06:46:55.855Z,10.18
2019-03-17T06:49:26.135Z,10.26
2019-03-17T06:51:56.744Z,10.36
2019-03-17T06:54:28.661Z,10.30
2019-03-17T06:56:59.194Z,10.34
2019-03-17T06:59:29.377Z,10.33
2019-03-17T07:02:03.663Z,10.32
2019-03-17T07:04:34.087Z,10.39
2019-03-17T07:07:04.320Z,10.41
2019-03-17T07:09:34.540Z,10.49
2019-03-17T07:12:05.124Z,10.41
2019-03-17T07:14:48.192Z,10.39
2019-03-17T07:17:20.782Z,10.46
2019-03-17T07:19:52.331Z,10.52
2019-03-17T07:22:25.598Z,10.34
2019-03-17T07:24:55.885Z,10.46
2019-03-17T07:27:29.217Z,10.43
2019-03-17T07:29:59.451Z,10.31
2019-03-17T07:32:29.658Z,10.31
2019-03-17T07:34:59.908Z,10.18
2019-03-17T07:37:32.588Z,10.20
2019-03-17T07:40:02.814Z,10.11
2019-03-17T07:42:39.895Z,9.96
2019-03-17T07:45:25.514Z,9.95
2019-03-17T07:48:00.973Z,9.96
2019-03-17T07:50:37.095Z,10.06
2019-03-17T07:53:07.552Z,10.15
2019-03-17T07:55:39.074Z,10.12
2019-03-17T07:58:12.388Z,10.16
2019-03-17T08:00:44.736Z,10.13
2019-03-17T08:03:17.649Z,10.16
2019-03-17T08:05:48.111Z,10.19
2019-03-17T08:08:20.182Z,10.12
2019-03-17T08:10:51.657Z,10.13
2019-03-17T08:13:22.160Z,10.13
2019-03-17T08:15:54.566Z,10.00
2019-03-17T08:18:26.950Z,10.11
2019-03-17T08:20:57.424Z,10.01
2019-03-17T08:23:31.010Z,9.96
2019-03-17T08:26:01.895Z,10.05
2019-03-17T08:28:32.198Z,10.07
2019-03-17T08:31:03.219Z,10.13
2019-03-17T08:33:33.603Z,10.17
2019-03-17T08:36:04.439Z,10.15
2019-03-17T08:38:38.278Z,10.17
2019-03-17T08:41:12.542Z,10.12
2019-03-17T08:44:02.263Z,10.14
2019-03-17T08:46:33.021Z,10.31
2019-03-17T08:49:06.891Z,10.22
2019-03-17T08:51:42.832Z,10.25
2019-03-17T08:54:16.067Z,10.26
2019-03-17T08:56:46.481Z,10.20
2019-03-17T08:59:16.749Z,10.02
2019-03-17T09:01:52.547Z,9.95
2019-03-17T09:04:26.379Z,9.89
2019-03-17T09:06:59.143Z,9.30
2019-03-17T09:09:30.401Z,7.93
2019-03-17T09:12:00.737Z,7.48
2019-03-17T09:14:31.338Z,7.15
2019-03-17T09:17:14.269Z,7.19
2019-03-17T09:19:37.871Z,7.26
2019-03-17T09:22:08.155Z,7.17
2019-03-17T09:24:38.571Z,7.03
2019-03-17T09:27:08.813Z,7.07
2019-03-17T09:29:40.141Z,6.91
2019-03-17T09:32:10.645Z,6.79
2019-03-17T09:34:46.801Z,6.76
2019-03-17T09:37:17.211Z,6.88
2019-03-17T09:39:47.379Z,7.06
2019-03-17T09:42:25.473Z,7.36
2019-03-17T09:44:55.770Z,7.60
2019-03-17T09:47:26.365Z,7.83
2019-03-17T09:50:02.159Z,7.83
2019-03-17T09:52:32.357Z,7.93
2019-03-17T09:55:02.833Z,8.08
2019-03-17T09:57:33.642Z,8.14
2019-03-17T10:00:07.290Z,8.14
2019-03-17T10:02:37.407Z,8.13
2019-03-17T10:05:13.165Z,8.45
2019-03-17T10:07:43.505Z,8.19
2019-03-17T10:10:14.163Z,8.23
2019-03-17T10:12:44.631Z,8.42
2019-03-17T10:15:17.246Z,8.31
2019-03-17T10:17:47.643Z,8.43
2019-03-17T10:20:22.210Z,8.57
2019-03-17T10:22:52.535Z,8.54
2019-03-17T10:25:22.993Z,8.59
2019-03-17T10:27:56.007Z,8.44
2019-03-17T10:30:32.209Z,8.54
2019-03-17T10:33:04.888Z,8.89
2019-03-17T10:35:40.839Z,8.90
2019-03-17T10:38:13.185Z,8.83
2019-03-17T10:40:46.089Z,8.90
2019-03-17T10:43:16.346Z,9.04
2019-03-17T10:45:46.760Z,8.95
2019-03-17T10:48:17.158Z,9.08
2019-03-17T10:50:50.049Z,9.27
2019-03-17T10:53:22.843Z,9.34
2019-03-17T10:55:54.105Z,9.29
2019-03-17T10:58:24.484Z,9.41
2019-03-17T11:00:55.504Z,9.55
2019-03-17T11:03:26.838Z,9.76
2019-03-17T11:05:58.061Z,9.79
2019-03-17T11:08:32.896Z,9.73
2019-03-17T11:11:05.215Z,9.60
2019-03-17T11:13:36.212Z,9.62
2019-03-17T11:16:07.118Z,9.82
2019-03-17T11:18:37.651Z,9.60
2019-03-17T11:21:13.702Z,9.58
2019-03-17T11:23:44.062Z,9.78
2019-03-17T11:26:17.720Z,10.25
2019-03-17T11:28:48.363Z,10.14
2019-03-17T11:31:18.797Z,9.95
2019-03-17T11:33:49.894Z,9.96
2019-03-17T11:36:20.260Z,9.73
2019-03-17T11:38:50.524Z,9.97
2019-03-17T11:41:20.692Z,10.02
2019-03-17T11:43:52.105Z,10.13
2019-03-17T11:46:23.210Z,10.25
2019-03-17T11:48:55.296Z,10.32
2019-03-17T11:51:25.474Z,10.24
2019-03-17T11:54:01.642Z,10.51
2019-03-17T11:56:31.731Z,10.81
2019-03-17T11:59:03.749Z,10.70
2019-03-17T12:01:34.178Z,10.58
2019-03-17T12:04:06.261Z,10.56
2019-03-17T12:06:41.792Z,10.75
2019-03-17T12:09:11.908Z,10.69
2019-03-17T12:11:42.030Z,10.75
2019-03-17T12:14:12.115Z,10.78
2019-03-17T12:16:43.309Z,10.52
2019-03-17T12:19:13.406Z,10.47
2019-03-17T12:21:48.704Z,9.96
2019-03-17T12:24:18.888Z,10.17
2019-03-17T12:26:49.092Z,10.18
2019-03-17T12:29:19.208Z,10.46
2019-03-17T12:31:49.436Z,10.15
2019-03-17T12:34:28.149Z,10.08
2019-03-17T12:36:51.762Z,9.96
2019-03-17T12:39:23.034Z,9.97
2019-03-17T12:41:53.158Z,10.11
2019-03-17T12:44:23.328Z,10.33
2019-03-17T12:46:53.464Z,10.71
2019-03-17T12:49:23.708Z,10.60
2019-03-17T12:51:53.794Z,10.55
2019-03-17T12:54:23.939Z,10.70
2019-03-17T12:56:54.062Z,10.26
2019-03-17T12:59:24.283Z,10.15
2019-03-17T13:01:54.385Z,10.24
2019-03-17T13:04:24.710Z,10.26
2019-03-17T13:06:59.681Z,10.20
2019-03-17T13:09:29.914Z,10.03
2019-03-17T13:12:00.122Z,9.64
2019-03-17T13:14:30.286Z,9.06
2019-03-17T13:17:00.961Z,8.92
2019-03-17T13:19:31.737Z,8.87
2019-03-17T13:22:03.952Z,9.09
2019-03-17T13:24:34.263Z,9.02
2019-03-17T13:27:04.448Z,8.95
2019-03-17T13:29:34.705Z,8.86
2019-03-17T13:32:05.062Z,8.84
2019-03-17T13:34:38.418Z,8.76
2019-03-17T13:37:08.618Z,8.35
2019-03-17T13:39:40.071Z,8.46
2019-03-17T13:42:10.351Z,8.61
2019-03-17T13:44:40.545Z,8.25
2019-03-17T13:47:10.725Z,8.33
2019-03-17T13:49:44.259Z,8.41
2019-03-17T13:52:14.365Z,8.45
2019-03-17T13:54:44.513Z,8.50
2019-03-17T13:57:17.119Z,8.55
2019-03-17T13:59:48.337Z,8.41
2019-03-17T14:02:23.059Z,8.46
2019-03-17T14:04:56.265Z,8.84
2019-03-17T14:07:26.375Z,9.03
2019-03-17T14:09:59.539Z,8.94
2019-03-17T14:12:30.853Z,8.94
2019-03-17T14:15:02.492Z,8.76
2019-03-17T14:17:32.828Z,8.55
2019-03-17T14:20:03.101Z,8.66
2019-03-17T14:22:35.465Z,8.30
2019-03-17T14:25:10.711Z,7.92
2019-03-17T14:27:43.829Z,6.69
2019-03-17T14:30:15.295Z,6.61
2019-03-17T14:32:49.634Z,6.64
2019-03-17T14:35:21.584Z,6.81
2019-03-17T14:37:51.801Z,6.95
2019-03-17T14:40:21.947Z,7.17
2019-03-17T14:42:55.103Z,6.75
2019-03-17T14:45:23.991Z,6.60
2019-03-17T14:47:54.069Z,6.67
2019-03-17T14:50:24.184Z,6.71
2019-03-17T14:52:57.411Z,6.46
2019-03-17T14:55:27.537Z,6.44
2019-03-17T14:57:57.746Z,6.51
2019-03-17T15:00:27.836Z,6.79
2019-03-17T15:03:01.192Z,6.81
2019-03-17T15:05:31.214Z,6.86
2019-03-17T15:08:01.477Z,7.00
2019-03-17T15:10:31.626Z,7.03
2019-03-17T15:13:01.716Z,6.94
2019-03-17T15:15:31.839Z,6.87
2019-03-17T15:18:02.009Z,6.69
2019-03-17T15:20:32.168Z,6.65
2019-03-17T15:23:05.528Z,6.54
2019-03-17T15:25:35.966Z,6.47
2019-03-17T15:28:06.289Z,6.62
2019-03-17T15:30:37.179Z,6.57
2019-03-17T15:33:09.189Z,6.58
2019-03-17T15:35:41.238Z,6.82
2019-03-17T15:38:14.252Z,6.88
2019-03-17T15:40:44.383Z,6.85
2019-03-17T15:43:14.497Z,6.81
2019-03-17T15:45:44.614Z,7.05
2019-03-17T15:48:17.250Z,7.26
2019-03-17T15:50:47.356Z,7.37
2019-03-17T15:53:17.450Z,7.45
2019-03-17T15:55:47.667Z,7.28
2019-03-17T15:58:19.010Z,7.30
2019-03-17T16:00:49.209Z,7.19
2019-03-17T16:03:19.320Z,7.13
2019-03-17T16:05:52.744Z,7.10
2019-03-17T16:08:24.076Z,6.99
2019-03-17T16:10:54.224Z,7.05
2019-03-17T16:13:25.862Z,7.02
2019-03-17T16:15:56.442Z,7.30
2019-03-17T16:18:27.442Z,7.50
2019-03-17T16:20:57.570Z,7.63
2019-03-17T16:23:29.893Z,7.80
2019-03-17T16:26:02.090Z,7.82
2019-03-17T16:28:35.129Z,7.84
2019-03-17T16:31:05.401Z,7.97
2019-03-17T16:33:35.721Z,8.09
2019-03-17T16:36:05.857Z,8.27
2019-03-17T16:38:36.312Z,8.34
2019-03-17T16:41:06.595Z,8.38
2019-03-17T16:43:36.734Z,8.49
2019-03-17T16:46:08.665Z,8.61
2019-03-17T16:48:41.371Z,8.53
2019-03-17T16:51:12.208Z,8.45
2019-03-17T16:53:45.868Z,8.57
2019-03-17T16:56:15.981Z,8.26
2019-03-17T16:58:46.412Z,7.99
2019-03-17T17:01:16.572Z,7.71
2019-03-17T17:03:46.691Z,7.57
2019-03-17T17:06:16.877Z,7.38
2019-03-17T17:08:49.391Z,7.29
2019-03-17T17:11:20.001Z,6.86
2019-03-17T17:13:51.956Z,6.83
2019-03-17T17:16:22.478Z,6.68
2019-03-17T17:18:54.657Z,6.62
2019-03-17T17:21:24.786Z,6.67
2019-03-17T17:23:58.319Z,6.54
2019-03-17T17:26:37.334Z,6.61
2019-03-17T17:29:03.797Z,6.45
2019-03-17T17:31:37.104Z,6.50
2019-03-17T17:34:07.220Z,6.43
2019-03-17T17:36:38.867Z,6.36
2019-03-17T17:45:02.151Z,6.32
2019-03-17T17:47:34.985Z,6.23
2019-03-17T17:50:08.433Z,6.31
2019-03-17T17:52:40.465Z,6.29
2019-03-17T17:55:11.164Z,6.17
2019-03-17T17:57:44.957Z,6.17
2019-03-17T18:00:21.239Z,6.12
2019-03-17T18:03:06.353Z,6.00
2019-03-17T18:05:40.293Z,5.99
2019-03-17T18:08:14.647Z,5.94
2019-03-17T18:10:45.681Z,5.91
2019-03-17T18:13:21.152Z,5.86
2019-03-17T18:15:54.752Z,5.82
2019-03-17T18:18:25.889Z,5.81
2019-03-17T18:21:14.319Z,5.78
2019-03-17T18:23:47.985Z,5.75
2019-03-17T18:26:18.863Z,5.77
2019-03-17T18:28:49.429Z,5.76
2019-03-17T18:31:19.729Z,5.79
2019-03-17T18:33:49.850Z,5.74
2019-03-17T18:36:21.730Z,5.74
2019-03-17T18:38:52.157Z,5.64
2019-03-17T18:41:23.736Z,5.71
2019-03-17T18:43:55.075Z,5.70
2019-03-17T18:46:25.402Z,5.68
2019-03-17T18:48:56.048Z,5.73
2019-03-17T18:51:30.771Z,5.65
2019-03-17T18:54:02.172Z,5.61
2019-03-17T18:56:33.719Z,5.67
2019-03-17T18:59:04.940Z,5.66
2019-03-17T19:01:44.319Z,5.64
2019-03-17T19:04:32.146Z,5.59
2019-03-17T19:07:04.762Z,5.59
2019-03-17T19:09:36.433Z,5.65
2019-03-17T19:12:07.272Z,5.61
2019-03-17T19:14:39.442Z,5.61
2019-03-17T19:17:09.678Z,5.56
2019-03-17T19:19:54.615Z,5.54
2019-03-17T19:22:27.977Z,5.54
2019-03-17T19:24:58.443Z,5.49
2019-03-17T19:27:29.148Z,5.47
2019-03-17T19:30:22.642Z,5.42
2019-03-17T19:32:53.236Z,5.46
2019-03-17T19:35:26.583Z,5.47
2019-03-17T19:37:56.812Z,5.42
2019-03-17T19:40:29.814Z,5.36
2019-03-17T19:43:00.478Z,5.25
2019-03-17T19:45:31.895Z,5.25
2019-03-17T19:48:02.566Z,5.29
2019-03-17T19:50:33.738Z,5.29
2019-03-17T19:53:04.743Z,5.30
2019-03-17T19:55:35.162Z,5.33
2019-03-17T19:58:17.073Z,5.26
2019-03-17T20:00:48.138Z,5.25
2019-03-17T20:03:18.625Z,5.27
2019-03-17T20:05:57.785Z,5.17
2019-03-17T20:08:24.558Z,5.20
2019-03-17T20:10:55.008Z,5.19
2019-03-17T20:13:25.365Z,5.20
2019-03-17T20:15:55.748Z,5.17
2019-03-17T20:18:25.982Z,5.10
2019-03-17T20:20:56.699Z,5.11
2019-03-17T20:23:35.169Z,5.09
2019-03-17T20:26:05.534Z,5.06
2019-03-17T20:28:38.213Z,5.05
2019-03-17T20:31:11.383Z,5.08
2019-03-17T20:33:46.154Z,4.95
2019-03-17T20:36:16.441Z,4.97
2019-03-17T20:38:47.752Z,4.98
2019-03-17T20:41:19.005Z,4.96
2019-03-17T20:43:51.441Z,4.91
2019-03-17T20:46:23.795Z,4.93
2019-03-17T20:49:02.754Z,4.92
2019-03-17T20:51:40.928Z,4.96
2019-03-17T20:54:38.093Z,5.03
2019-03-17T20:57:09.952Z,5.14
2019-03-17T20:59:40.189Z,5.17
2019-03-17T21:02:10.458Z,5.14
2019-03-17T21:04:44.200Z,5.13
2019-03-17T21:07:20.374Z,5.07
2019-03-17T21:09:50.711Z,5.00
2019-03-17T21:12:24.823Z,4.90
2019-03-17T21:15:05.838Z,4.89
2019-03-17T21:17:49.549Z,4.87
2019-03-17T21:20:22.973Z,4.84
2019-03-17T21:22:56.915Z,4.75
2019-03-17T21:25:27.264Z,4.80
2019-03-17T21:28:00.549Z,4.82
2019-03-17T21:30:31.182Z,4.87
2019-03-17T21:33:03.205Z,4.96
2019-03-17T21:35:35.166Z,4.92
2019-03-17T21:38:05.418Z,4.85
2019-03-17T21:40:35.812Z,4.84
2019-03-17T21:43:06.009Z,4.82
2019-03-17T21:45:36.469Z,4.80
2019-03-17T21:48:06.605Z,4.75
2019-03-17T21:50:40.160Z,4.76
2019-03-17T21:53:10.513Z,4.69
2019-03-17T21:55:41.223Z,4.70
2019-03-17T21:58:11.521Z,4.70
2019-03-17T22:00:41.729Z,4.64
2019-03-17T22:03:18.665Z,4.67
2019-03-17T22:05:48.861Z,4.70
2019-03-17T22:08:19.451Z,4.68
2019-03-17T22:10:49.742Z,4.69
2019-03-17T22:13:20.049Z,4.64
2019-03-17T22:15:50.260Z,4.65
2019-03-17T22:18:20.505Z,4.64
2019-03-17T22:20:51.045Z,4.60
2019-03-17T22:23:24.220Z,4.59
2019-03-17T22:25:54.578Z,4.63
2019-03-17T22:28:24.785Z,4.61
2019-03-17T22:30:54.995Z,4.61
2019-03-17T22:33:25.249Z,4.56
2019-03-17T22:35:56.837Z,4.52
2019-03-17T22:38:31.214Z,4.55
2019-03-17T22:41:01.924Z,4.55
2019-03-17T22:43:32.367Z,4.43
2019-03-17T22:46:02.992Z,4.46
2019-03-17T22:48:33.123Z,4.43
2019-03-17T22:51:03.273Z,4.46
2019-03-17T22:53:33.467Z,4.43
2019-03-17T22:56:03.639Z,4.41
2019-03-17T22:58:33.797Z,4.39
2019-03-17T23:01:04.062Z,4.38
2019-03-17T23:03:36.797Z,4.36
2019-03-17T23:06:07.161Z,4.31
2019-03-17T23:08:37.514Z,4.29
2019-03-17T23:11:07.894Z,4.20
2019-03-17T23:13:38.052Z,4.13
2019-03-17T23:16:08.399Z,4.21
2019-03-17T23:18:38.551Z,4.22
2019-03-17T23:21:08.947Z,4.15
2019-03-17T23:23:39.583Z,4.17
2019-03-17T23:26:09.961Z,4.18
2019-03-17T23:28:40.202Z,4.07
2019-03-17T23:31:10.903Z,4.10
2019-03-17T23:33:41.136Z,4.10
2019-03-17T23:36:13.501Z,4.07
2019-03-17T23:38:43.667Z,4.04
2019-03-17T23:41:13.900Z,4.05
2019-03-17T23:43:47.955Z,4.03
2019-03-17T23:46:18.836Z,4.00
2019-03-17T23:48:52.084Z,4.05
2019-03-17T23:51:22.253Z,4.01
2019-03-17T23:53:52.504Z,3.96
2019-03-17T23:56:25.721Z,3.95
2019-03-17T23:58:57.562Z,3.92
